createdAt,value
2019-04-23T00:01:38.222Z,36.10
2019-04-23T00:04:04.656Z,36.20
2019-04-23T00:06:23.557Z,36.60
2019-04-23T00:09:00.920Z,36.70
2019-04-23T00:11:26.107Z,36.70
2019-04-23T00:14:29.894Z,36.80
2019-04-23T00:16:27.626Z,36.90
2019-04-23T00:18:56.066Z,37.10
2019-04-23T00:21:28.392Z,37.10
2019-04-23T00:24:07.621Z,36.90
2019-04-23T00:33:46.453Z,37.00
2019-04-23T00:36:24.200Z,37.40
2019-04-23T00:38:44.728Z,37.50
2019-04-23T00:41:15.970Z,37.80
2019-04-23T00:43:43.207Z,38.00
2019-04-23T00:46:11.496Z,38.00
2019-04-23T00:48:42.779Z,38.00
2019-04-23T00:50:59.070Z,38.10
2019-04-23T00:53:43.995Z,38.10
2019-04-23T00:56:20.698Z,38.10
2019-04-23T00:58:33.680Z,38.40
2019-04-23T01:01:11.285Z,38.50
2019-04-23T01:03:21.387Z,38.80
2019-04-23T01:05:55.692Z,39.00
2019-04-23T01:08:24.932Z,39.10
2019-04-23T01:10:59.804Z,39.30
2019-04-23T01:15:52.356Z,39.70
2019-04-23T01:18:35.860Z,39.90
2019-04-23T01:20:52.825Z,40.00
2019-04-23T01:23:07.357Z,40.50
2019-04-23T01:25:51.369Z,40.70
2019-04-23T01:31:07.021Z,41.10
2019-04-23T01:33:32.965Z,41.20
2019-04-23T01:38:31.423Z,41.60
2019-04-23T01:40:45.855Z,41.80
2019-04-23T01:43:18.253Z,41.90
2019-04-23T01:45:34.244Z,42.00
2019-04-23T01:48:16.090Z,42.30
2019-04-23T01:50:48.721Z,42.50
2019-04-23T01:53:14.995Z,42.80
2019-04-23T01:55:45.392Z,43.10
2019-04-23T01:58:33.558Z,43.40
2019-04-23T02:05:38.381Z,44.20
2019-04-23T02:08:05.175Z,44.60
2019-04-23T02:10:39.183Z,44.70
2019-04-23T02:13:03.829Z,45.90
2019-04-23T02:15:36.303Z,45.50
2019-04-23T02:18:08.544Z,45.70
2019-04-23T02:20:41.874Z,45.90
2019-04-23T02:23:16.564Z,46.10
2019-04-23T02:25:50.798Z,46.20
2019-04-23T02:28:19.034Z,46.40
2019-04-23T02:30:53.209Z,46.60
2019-04-23T02:33:27.277Z,47.10
2019-04-23T02:38:10.139Z,47.40
2019-04-23T02:40:46.817Z,47.60
2019-04-23T02:43:09.472Z,47.90
2019-04-23T02:45:39.495Z,48.40
2019-04-23T02:48:16.712Z,48.60
2019-04-23T02:50:34.684Z,48.80
2019-04-23T02:52:58.235Z,49.00
2019-04-23T02:55:28.296Z,49.20
2019-04-23T02:57:50.421Z,49.40
2019-04-23T03:02:54.714Z,50.10
2019-04-23T03:12:37.795Z,51.00
2019-04-23T03:15:32.942Z,51.40
2019-04-23T03:18:21.103Z,51.80
2019-04-23T03:20:59.533Z,52.30
2019-04-23T03:25:56.930Z,52.80
2019-04-23T03:28:37.782Z,53.10
2019-04-23T03:38:35.670Z,54.30
2019-04-23T03:40:46.697Z,54.30
2019-04-23T03:43:26.208Z,54.60
2019-04-23T03:48:17.987Z,55.00
2019-04-23T03:53:18.396Z,55.60
2019-04-23T04:03:27.724Z,57.10
2019-04-23T04:05:35.650Z,57.40
2019-04-23T04:08:12.083Z,57.40
2019-04-23T04:10:41.606Z,57.40
2019-04-23T04:13:01.415Z,58.00
2019-04-23T04:18:03.949Z,58.50
2019-04-23T04:20:33.049Z,58.90
2019-04-23T04:23:00.367Z,59.20
2019-04-23T04:25:30.538Z,59.40
2019-04-23T04:27:53.895Z,59.60
2019-04-23T04:32:46.908Z,59.80
2019-04-23T04:40:10.905Z,60.50
2019-04-23T04:42:33.266Z,60.60
2019-04-23T04:45:13.703Z,60.70
2019-04-23T04:47:36.224Z,61.20
2019-04-23T04:50:08.139Z,61.40
2019-04-23T04:54:50.327Z,61.90
2019-04-23T04:57:35.377Z,62.40
2019-04-23T05:02:25.941Z,62.20
2019-04-23T05:07:25.962Z,63.10
2019-04-23T05:14:59.654Z,64.00
2019-04-23T05:17:18.343Z,64.50
2019-04-23T05:22:06.961Z,64.80
2019-04-23T05:26:58.444Z,66.20
2019-04-23T05:29:34.194Z,65.70
2019-04-23T05:31:56.050Z,65.90
2019-04-23T05:34:22.261Z,66.30
2019-04-23T05:37:06.463Z,66.00
2019-04-23T05:39:35.221Z,66.50
2019-04-23T05:41:50.027Z,66.60
2019-04-23T05:49:11.097Z,67.10
2019-04-23T05:51:44.544Z,66.90
2019-04-23T05:54:06.763Z,67.50
2019-04-23T05:59:07.220Z,67.60
2019-04-23T06:01:53.093Z,67.70
2019-04-23T06:04:17.560Z,67.60
2019-04-23T06:06:44.576Z,67.30
2019-04-23T06:08:59.323Z,67.00
2019-04-23T06:11:39.552Z,67.00
2019-04-23T06:14:02.175Z,67.30
2019-04-23T06:16:31.431Z,67.10
2019-04-23T06:18:53.379Z,66.90
2019-04-23T06:28:40.358Z,68.00
2019-04-23T06:31:19.879Z,68.20
2019-04-23T06:33:40.046Z,68.40
2019-04-23T06:41:05.754Z,68.30
2019-04-23T06:43:55.858Z,67.70
2019-04-23T06:46:21.284Z,67.70
2019-04-23T06:48:47.007Z,67.70
2019-04-23T06:51:20.135Z,67.60
2019-04-23T06:53:35.894Z,67.40
2019-04-23T06:56:14.315Z,67.20
2019-04-23T06:58:38.556Z,67.00
2019-04-23T07:01:05.541Z,66.70
2019-04-23T07:03:38.969Z,67.10
2019-04-23T07:06:16.833Z,67.30
2019-04-23T07:08:44.372Z,65.30
2019-04-23T07:11:09.565Z,65.20
2019-04-23T07:13:40.058Z,64.90
2019-04-23T07:15:58.380Z,64.70
2019-04-23T07:18:31.460Z,64.70
2019-04-23T07:21:06.754Z,65.30
2019-04-23T07:23:41.290Z,65.70
2019-04-23T07:26:09.266Z,64.70
2019-04-23T07:28:26.146Z,64.40
2019-04-23T07:31:03.846Z,63.70
2019-04-23T07:33:31.098Z,63.10
2019-04-23T07:35:52.031Z,62.10
2019-04-23T07:38:48.160Z,61.10
2019-04-23T07:41:18.564Z,63.00
2019-04-23T07:43:51.583Z,64.20
2019-04-23T07:46:33.709Z,64.00
2019-04-23T07:48:56.376Z,63.10
2019-04-23T07:51:29.571Z,63.20
2019-04-23T07:54:08.055Z,62.20
2019-04-23T07:56:24.340Z,61.90
2019-04-23T07:58:51.162Z,61.70
2019-04-23T08:01:12.517Z,62.20
2019-04-23T08:03:43.646Z,62.10
2019-04-23T08:06:21.641Z,62.20
2019-04-23T08:08:37.883Z,62.40
2019-04-23T08:13:48.916Z,60.40
2019-04-23T08:16:18.360Z,60.20
2019-04-23T08:18:45.275Z,60.40
2019-04-23T08:21:10.653Z,59.70
2019-04-23T08:23:49.636Z,58.90
2019-04-23T08:26:35.822Z,59.10
2019-04-23T08:29:12.238Z,57.60
2019-04-23T08:31:38.762Z,56.20
2019-04-23T08:34:16.786Z,56.00
2019-04-23T08:36:37.522Z,55.60
2019-04-23T08:38:57.541Z,55.10
2019-04-23T08:41:33.898Z,55.70
2019-04-23T08:44:15.601Z,56.30
2019-04-23T08:46:56.862Z,55.20
2019-04-23T08:51:51.771Z,54.20
2019-04-23T08:54:29.773Z,54.20
2019-04-23T08:56:48.960Z,54.50
2019-04-23T08:59:25.208Z,53.20
2019-04-23T09:01:59.440Z,53.20
2019-04-23T09:04:09.338Z,53.40
2019-04-23T09:06:35.308Z,53.40
2019-04-23T09:09:10.478Z,53.70
2019-04-23T09:19:02.704Z,49.70
2019-04-23T09:21:27.504Z,48.90
2019-04-23T09:26:21.857Z,49.60
2019-04-23T09:28:54.694Z,48.90
2019-04-23T09:31:30.310Z,49.90
2019-04-23T09:36:57.946Z,47.30
2019-04-23T09:39:32.645Z,47.20
2019-04-23T09:41:59.901Z,46.90
2019-04-23T09:44:56.027Z,46.80
2019-04-23T09:47:28.076Z,46.40
2019-04-23T09:50:06.391Z,45.80
2019-04-23T09:52:27.087Z,46.10
2019-04-23T09:55:11.696Z,46.10
2019-04-23T09:57:15.942Z,46.30
2019-04-23T09:59:48.939Z,46.80
2019-04-23T10:02:13.488Z,47.10
2019-04-23T10:04:31.951Z,46.20
2019-04-23T10:07:01.675Z,46.90
2019-04-23T10:09:16.656Z,46.40
2019-04-23T10:11:45.160Z,45.80
2019-04-23T10:14:12.417Z,46.40
2019-04-23T10:16:38.961Z,45.30
2019-04-23T10:19:06.054Z,46.20
2019-04-23T10:21:33.400Z,46.70
2019-04-23T10:24:01.431Z,46.30
2019-04-23T10:26:28.200Z,46.30
2019-04-23T10:29:02.600Z,45.50
2019-04-23T10:31:28.810Z,46.30
2019-04-23T10:33:55.884Z,45.20
2019-04-23T10:36:25.854Z,45.10
2019-04-23T10:38:59.472Z,45.10
2019-04-23T10:41:20.084Z,44.80
2019-04-23T10:43:52.194Z,44.10
2019-04-23T10:47:02.713Z,43.70
2019-04-23T10:52:11.607Z,42.60
2019-04-23T10:56:59.955Z,44.10
2019-04-23T10:59:38.861Z,43.00
2019-04-23T11:02:24.078Z,42.60
2019-04-23T11:04:47.343Z,41.80
2019-04-23T11:07:05.377Z,41.10
2019-04-23T11:09:42.410Z,41.30
2019-04-23T11:12:12.782Z,40.70
2019-04-23T11:14:43.187Z,41.20
2019-04-23T11:17:08.041Z,41.90
2019-04-23T11:19:44.261Z,40.00
2019-04-23T11:22:07.188Z,39.70
2019-04-23T11:24:37.548Z,39.60
2019-04-23T11:27:01.937Z,39.80
2019-04-23T11:29:29.699Z,39.70
2019-04-23T11:31:52.256Z,39.60
2019-04-23T11:34:33.706Z,39.70
2019-04-23T11:36:53.593Z,38.90
2019-04-23T11:39:20.004Z,38.80
2019-04-23T11:46:53.957Z,38.10
2019-04-23T11:49:26.506Z,38.00
2019-04-23T11:57:07.891Z,37.20
2019-04-23T11:59:12.250Z,37.20
2019-04-23T12:06:41.684Z,36.60
2019-04-23T12:09:25.687Z,36.50
2019-04-23T12:12:02.230Z,37.00
2019-04-23T12:14:32.908Z,35.50
2019-04-23T12:16:59.535Z,35.30
2019-04-23T12:19:51.329Z,33.60
2019-04-23T12:21:53.131Z,34.30
2019-04-23T12:24:38.929Z,34.10
2019-04-23T12:29:20.277Z,33.40
2019-04-23T12:31:47.113Z,33.70
2019-04-23T12:34:14.168Z,34.00
2019-04-23T12:36:46.835Z,33.70
2019-04-23T12:39:21.949Z,33.40
2019-04-23T12:44:20.175Z,33.40
2019-04-23T12:46:48.739Z,33.70
2019-04-23T12:49:21.338Z,33.20
2019-04-23T12:51:41.597Z,33.20
2019-04-23T12:54:06.998Z,32.60
2019-04-23T12:56:49.082Z,33.20
2019-04-23T12:58:59.577Z,33.10
2019-04-23T13:01:36.018Z,32.60
2019-04-23T13:03:56.083Z,32.60
2019-04-23T13:06:20.890Z,33.40
2019-04-23T13:08:53.673Z,33.10
2019-04-23T13:11:29.862Z,33.80
2019-04-23T13:13:53.232Z,33.50
2019-04-23T13:16:25.521Z,32.70
2019-04-23T13:18:44.750Z,33.70
2019-04-23T13:21:41.457Z,33.40
2019-04-23T13:23:44.227Z,33.20
2019-04-23T13:26:05.840Z,33.10
2019-04-23T13:31:10.561Z,32.40
2019-04-23T13:38:40.497Z,32.40
2019-04-23T13:41:11.617Z,32.70
2019-04-23T13:43:40.975Z,32.90
2019-04-23T13:46:06.869Z,32.80
2019-04-23T13:50:59.693Z,33.20
2019-04-23T13:53:38.342Z,33.30
2019-04-23T13:55:52.492Z,33.50
2019-04-23T14:01:13.683Z,34.40
2019-04-23T14:03:30.309Z,35.20
2019-04-23T14:08:57.161Z,35.00
2019-04-23T14:11:03.647Z,35.00
2019-04-23T14:16:03.594Z,34.10
2019-04-23T14:20:59.038Z,34.90
2019-04-23T14:23:39.545Z,34.80
2019-04-23T14:26:11.003Z,35.30
2019-04-23T14:28:28.760Z,35.30
2019-04-23T14:33:32.584Z,34.70
2019-04-23T14:35:49.775Z,34.60
2019-04-23T14:38:27.489Z,35.30
2019-04-23T14:41:03.436Z,35.50
2019-04-23T14:43:15.017Z,35.30
2019-04-23T14:48:21.043Z,35.10
2019-04-23T14:50:58.292Z,34.70
2019-04-23T14:53:24.713Z,35.00
2019-04-23T14:56:07.825Z,35.30
2019-04-23T15:01:09.863Z,34.60
2019-04-23T15:03:26.918Z,34.70
2019-04-23T15:08:24.970Z,33.20
2019-04-23T15:11:05.243Z,32.80
2019-04-23T15:13:14.747Z,33.30
2019-04-23T15:15:51.399Z,33.60
2019-04-23T15:18:24.510Z,34.20
2019-04-23T15:20:46.359Z,33.60
2019-04-23T15:23:33.233Z,33.50
2019-04-23T15:26:15.256Z,33.90
2019-04-23T15:30:36.690Z,35.00
2019-04-23T15:33:27.099Z,35.20
2019-04-23T15:35:45.900Z,37.20
2019-04-23T15:43:05.910Z,36.10
2019-04-23T15:45:34.948Z,38.30
2019-04-23T15:48:03.539Z,38.20
2019-04-23T15:50:27.196Z,38.50
2019-04-23T15:55:20.972Z,37.80
2019-04-23T16:00:13.287Z,37.40
2019-04-23T16:02:17.864Z,37.50
2019-04-23T16:04:44.218Z,37.50
2019-04-23T16:07:16.889Z,37.30
2019-04-23T16:10:11.008Z,37.60
2019-04-23T16:12:35.654Z,38.60
2019-04-23T16:25:07.596Z,37.60
2019-04-23T16:27:34.095Z,37.50
2019-04-23T16:30:10.817Z,37.70
2019-04-23T16:32:58.730Z,37.50
2019-04-23T16:35:28.182Z,37.80
2019-04-23T16:37:49.294Z,38.10
2019-04-23T16:42:49.294Z,38.10
2019-04-23T16:45:17.893Z,38.40
2019-04-23T16:47:38.793Z,38.40
2019-04-23T16:52:32.658Z,38.30
2019-04-23T16:55:13.788Z,38.30
2019-04-23T17:02:45.884Z,38.90
2019-04-23T17:05:25.152Z,39.00
2019-04-23T17:08:33.786Z,39.30
2019-04-23T17:10:42.934Z,39.70
2019-04-23T17:13:24.087Z,40.10
2019-04-23T17:18:38.343Z,39.80
2019-04-23T17:21:04.737Z,39.80
2019-04-23T17:26:26.278Z,40.00
2019-04-23T17:28:35.957Z,40.10
2019-04-23T17:33:54.119Z,39.40
2019-04-23T17:36:24.777Z,38.90
2019-04-23T17:38:58.732Z,38.80
2019-04-23T17:41:38.801Z,38.10
2019-04-23T17:44:18.856Z,38.40
2019-04-23T17:46:44.515Z,38.30
2019-04-23T17:49:10.880Z,38.70
2019-04-23T17:51:49.431Z,38.80
2019-04-23T17:54:23.240Z,39.00
2019-04-23T17:56:35.771Z,38.90
2019-04-23T17:59:00.150Z,38.90
2019-04-23T18:01:25.664Z,39.00
2019-04-23T18:06:37.926Z,40.00
2019-04-23T18:09:00.789Z,40.10
2019-04-23T18:13:56.773Z,42.10
2019-04-23T18:16:27.621Z,42.00
2019-04-23T18:21:32.820Z,42.90
2019-04-23T18:26:42.619Z,43.40
2019-04-23T18:29:17.312Z,43.40
2019-04-23T18:31:46.910Z,43.60
2019-04-23T18:34:12.539Z,43.70
2019-04-23T18:36:41.617Z,44.20
2019-04-23T18:39:12.115Z,44.20
2019-04-23T18:41:43.500Z,44.60
2019-04-23T18:44:17.195Z,44.60
2019-04-23T18:46:40.340Z,44.80
2019-04-23T18:48:58.055Z,45.00
2019-04-23T18:51:33.937Z,45.50
2019-04-23T18:53:52.792Z,45.80
2019-04-23T18:56:30.631Z,45.80
2019-04-23T18:59:02.493Z,46.10
2019-04-23T19:01:32.774Z,46.60
2019-04-23T19:04:07.113Z,47.40
2019-04-23T19:06:33.108Z,46.80
2019-04-23T19:09:23.703Z,47.20
2019-04-23T19:14:44.421Z,47.70
2019-04-23T19:17:09.031Z,48.00
2019-04-23T19:19:20.413Z,48.30
2019-04-23T19:24:15.612Z,48.80
2019-04-23T19:29:11.586Z,48.90
2019-04-23T19:32:08.820Z,49.60
2019-04-23T19:36:58.614Z,50.60
2019-04-23T19:39:27.924Z,51.50
2019-04-23T19:44:20.114Z,52.90
2019-04-23T19:49:25.068Z,54.30
2019-04-23T19:51:48.245Z,54.30
2019-04-23T19:54:20.140Z,54.20
2019-04-23T19:56:47.283Z,54.40
2019-04-23T19:59:01.828Z,54.20
2019-04-23T20:01:39.028Z,54.40
2019-04-23T20:03:55.906Z,54.20
2019-04-23T20:07:09.007Z,54.50
2019-04-23T20:09:17.654Z,54.80
2019-04-23T20:11:37.620Z,55.40
2019-04-23T20:16:31.065Z,56.00
2019-04-23T20:21:20.876Z,56.20
2019-04-23T20:24:04.684Z,56.60
2019-04-23T20:26:17.304Z,57.10
2019-04-23T20:32:31.299Z,57.90
2019-04-23T20:34:01.280Z,59.00
2019-04-23T20:36:31.935Z,58.80
2019-04-23T20:41:28.290Z,59.70
2019-04-23T20:43:50.451Z,60.30
2019-04-23T20:46:14.385Z,60.30
2019-04-23T20:48:49.053Z,60.50
2019-04-23T20:51:07.903Z,60.60
2019-04-23T20:53:40.334Z,60.70
2019-04-23T20:56:18.003Z,60.30
2019-04-23T21:04:00.477Z,62.20
2019-04-23T21:06:28.517Z,62.60
2019-04-23T21:09:17.438Z,62.90
2019-04-23T21:11:31.116Z,62.30
2019-04-23T21:14:10.841Z,62.10
2019-04-23T21:16:21.719Z,63.20
2019-04-23T21:18:48.364Z,63.80
2019-04-23T21:21:18.321Z,64.50
2019-04-23T21:23:50.786Z,65.30
2019-04-23T21:26:01.945Z,66.40
2019-04-23T21:29:07.353Z,67.40
2019-04-23T21:31:25.531Z,67.10
2019-04-23T21:34:05.868Z,67.60
2019-04-23T21:39:15.082Z,67.00
2019-04-23T21:41:53.272Z,67.40
2019-04-23T21:44:21.002Z,68.50
2019-04-23T21:49:31.967Z,69.40
2019-04-23T21:51:45.956Z,70.30
2019-04-23T21:59:07.331Z,71.70
2019-04-23T22:04:08.739Z,72.90
2019-04-23T22:06:33.514Z,72.60
2019-04-23T22:08:58.947Z,71.90
2019-04-23T22:11:42.715Z,72.20
2019-04-23T22:20:00.666Z,72.40
2019-04-23T22:21:25.468Z,72.80
2019-04-23T22:26:14.588Z,73.80
2019-04-23T22:28:54.373Z,73.80
2019-04-23T22:31:12.498Z,74.20
2019-04-23T22:33:46.910Z,74.00
2019-04-23T22:36:10.051Z,74.20
2019-04-23T22:41:01.806Z,73.90
2019-04-23T22:43:47.659Z,74.80
2019-04-23T22:46:20.809Z,76.40
2019-04-23T22:48:27.385Z,76.00
2019-04-23T22:51:06.943Z,75.10
2019-04-23T22:53:20.521Z,76.20
2019-04-23T22:55:57.341Z,75.90
2019-04-23T22:58:22.268Z,76.70
2019-04-23T23:01:02.768Z,77.70
2019-04-23T23:03:36.136Z,77.40
2019-04-23T23:08:20.894Z,78.00
2019-04-23T23:13:20.552Z,77.20
2019-04-23T23:15:57.516Z,78.20
2019-04-23T23:25:42.118Z,76.20
2019-04-23T23:28:30.710Z,76.80
2019-04-23T23:30:48.134Z,78.00
2019-04-23T23:33:11.281Z,79.30
2019-04-23T23:35:38.912Z,79.30
2019-04-23T23:38:09.783Z,79.50
2019-04-23T23:40:39.706Z,80.90
2019-04-23T23:43:15.808Z,80.70
2019-04-23T23:45:40.906Z,80.40
2019-04-23T23:47:59.275Z,79.80
2019-04-23T23:50:35.387Z,80.10
2019-04-23T23:53:05.899Z,80.60
2019-04-23T23:55:30.183Z,80.50
2019-04-23T23:57:56.826Z,82.30
